Eau Pleine, Wisconsin
Current Conditions -  °F | °C
As of 2:55 PM on Tuesday 21 Oct 2014 (Local Time) from KSTE Reporting Station
Clear Clear  
Wind Chill: 45°   Ceiling: Unl
Heat Index: 49°   Visibility: 10mi
Dew Point: 34°   Wind: 7mph
Humidity: 58%   Direction: 120°ESE
Pressure: 30.22"   Gusts: NA
Location:  44.6097°N, 89.7558°W
Report Text: KSTE 211955Z AUTO 12006KT 10SM CLR 09/01 A3022 RMK AO2 P0001 T00920012
Loading
Personal Weather Stations






























Interactive Weather Map
Tropical Storm Tracking
New forecast layout! Learn more

10-Day Weather Forecast

Advertisements
Track Severe Weather on mobile